sensor_id;sensor_type;location;lat;lon;timestamp;temperature;humidity
31369;DHT22;18004;48.416;10.066;2022-12-18T00:02:05;-6.40;99.90
31369;DHT22;18004;48.416;10.066;2022-12-18T00:04:30;-6.40;99.90
31369;DHT22;18004;48.416;10.066;2022-12-18T00:06:56;-6.50;99.90
31369;DHT22;18004;48.416;10.066;2022-12-18T00:09:22;-6.50;99.90
31369;DHT22;18004;48.416;10.066;2022-12-18T00:11:50;-6.50;99.90
31369;DHT22;18004;48.416;10.066;2022-12-18T00:14:16;-6.60;99.90
31369;DHT22;18004;48.416;10.066;2022-12-18T00:16:46;-6.50;99.90
31369;DHT22;18004;48.416;10.066;2022-12-18T00:19:13;-6.50;99.90
31369;DHT22;18004;48.416;10.066;2022-12-18T00:21:42;-6.50;99.90
31369;DHT22;18004;48.416;10.066;2022-12-18T00:24:09;-6.50;99.90
31369;DHT22;18004;48.416;10.066;2022-12-18T00:26:37;-6.60;99.90
31369;DHT22;18004;48.416;10.066;2022-12-18T00:29:07;-6.60;99.90
31369;DHT22;18004;48.416;10.066;2022-12-18T00:31:33;-6.60;99.90
31369;DHT22;18004;48.416;10.066;2022-12-18T00:33:59;-6.60;99.90
31369;DHT22;18004;48.416;10.066;2022-12-18T00:36:28;-6.70;99.90
31369;DHT22;18004;48.416;10.066;2022-12-18T00:38:55;-6.70;99.90
31369;DHT22;18004;48.416;10.066;2022-12-18T00:41:21;-6.70;99.90
31369;DHT22;18004;48.416;10.066;2022-12-18T00:44:07;-6.70;99.90
31369;DHT22;18004;48.416;10.066;2022-12-18T00:46:33;-6.70;99.90
31369;DHT22;18004;48.416;10.066;2022-12-18T00:48:58;-6.70;99.90
31369;DHT22;18004;48.416;10.066;2022-12-18T00:51:24;-6.70;99.90
31369;DHT22;18004;48.416;10.066;2022-12-18T00:53:50;-6.70;99.90
31369;DHT22;18004;48.416;10.066;2022-12-18T00:56:16;-6.70;99.90
31369;DHT22;18004;48.416;10.066;2022-12-18T00:58:42;-6.70;99.90
31369;DHT22;18004;48.416;10.066;2022-12-18T01:01:07;-6.70;99.90
31369;DHT22;18004;48.416;10.066;2022-12-18T01:03:34;-6.60;99.90
31369;DHT22;18004;48.416;10.066;2022-12-18T01:06:09;-6.60;99.90
31369;DHT22;18004;48.416;10.066;2022-12-18T01:08:35;-6.60;99.90
31369;DHT22;18004;48.416;10.066;2022-12-18T01:11:11;-6.60;99.90
31369;DHT22;18004;48.416;10.066;2022-12-18T01:13:38;-6.70;99.90
31369;DHT22;18004;48.416;10.066;2022-12-18T01:16:05;-6.80;99.90
31369;DHT22;18004;48.416;10.066;2022-12-18T01:18:31;-6.80;99.90
31369;DHT22;18004;48.416;10.066;2022-12-18T01:20:57;-6.70;99.90
31369;DHT22;18004;48.416;10.066;2022-12-18T01:23:22;-6.80;99.90
31369;DHT22;18004;48.416;10.066;2022-12-18T01:25:48;-6.80;99.90
31369;DHT22;18004;48.416;10.066;2022-12-18T01:28:14;-6.70;99.90
31369;DHT22;18004;48.416;10.066;2022-12-18T01:30:40;-6.80;99.90
31369;DHT22;18004;48.416;10.066;2022-12-18T01:33:05;-6.80;99.90
31369;DHT22;18004;48.416;10.066;2022-12-18T01:35:31;-6.80;99.90
31369;DHT22;18004;48.416;10.066;2022-12-18T01:37:57;-6.80;99.90
31369;DHT22;18004;48.416;10.066;2022-12-18T01:40:23;-6.70;99.90
31369;DHT22;18004;48.416;10.066;2022-12-18T01:42:53;-6.70;99.90
31369;DHT22;18004;48.416;10.066;2022-12-18T01:45:22;-6.70;99.90
31369;DHT22;18004;48.416;10.066;2022-12-18T01:50:38;-6.70;99.90
31369;DHT22;18004;48.416;10.066;2022-12-18T01:53:17;-6.70;99.90
31369;DHT22;18004;48.416;10.066;2022-12-18T01:55:53;-6.70;99.90
31369;DHT22;18004;48.416;10.066;2022-12-18T01:58:21;-6.60;99.90
31369;DHT22;18004;48.416;10.066;2022-12-18T02:00:48;-6.50;99.90
31369;DHT22;18004;48.416;10.066;2022-12-18T02:03:14;-6.60;99.90
31369;DHT22;18004;48.416;10.066;2022-12-18T02:11:12;-6.60;99.90
31369;DHT22;18004;48.416;10.066;2022-12-18T02:22:34;-6.70;99.90
31369;DHT22;18004;48.416;10.066;2022-12-18T02:25:28;-6.70;99.90
31369;DHT22;18004;48.416;10.066;2022-12-18T02:28:00;-6.60;99.90
31369;DHT22;18004;48.416;10.066;2022-12-18T02:30:29;-6.60;99.90
31369;DHT22;18004;48.416;10.066;2022-12-18T02:32:57;-6.60;99.90
31369;DHT22;18004;48.416;10.066;2022-12-18T02:35:28;-6.60;99.90
31369;DHT22;18004;48.416;10.066;2022-12-18T02:37:55;-6.60;99.90
31369;DHT22;18004;48.416;10.066;2022-12-18T02:40:24;-6.60;99.90
31369;DHT22;18004;48.416;10.066;2022-12-18T02:42:50;-6.70;99.90
31369;DHT22;18004;48.416;10.066;2022-12-18T02:45:19;-6.60;99.90
31369;DHT22;18004;48.416;10.066;2022-12-18T02:47:48;-6.60;99.90
31369;DHT22;18004;48.416;10.066;2022-12-18T02:50:30;-6.70;99.90
31369;DHT22;18004;48.416;10.066;2022-12-18T02:56:32;-6.80;99.90
31369;DHT22;18004;48.416;10.066;2022-12-18T02:59:12;-6.70;99.90
31369;DHT22;18004;48.416;10.066;2022-12-18T03:01:45;-6.80;99.90
31369;DHT22;18004;48.416;10.066;2022-12-18T03:06:55;-6.80;99.90
31369;DHT22;18004;48.416;10.066;2022-12-18T03:09:38;-6.80;99.90
31369;DHT22;18004;48.416;10.066;2022-12-18T03:12:31;-6.90;99.90
31369;DHT22;18004;48.416;10.066;2022-12-18T03:15:19;-6.90;99.90
31369;DHT22;18004;48.416;10.066;2022-12-18T03:17:52;-7.00;99.90
31369;DHT22;18004;48.416;10.066;2022-12-18T03:20:22;-7.00;99.90
31369;DHT22;18004;48.416;10.066;2022-12-18T03:22:54;-7.00;99.90
31369;DHT22;18004;48.416;10.066;2022-12-18T03:25:21;-6.90;99.90
31369;DHT22;18004;48.416;10.066;2022-12-18T03:27:51;-6.90;99.90
31369;DHT22;18004;48.416;10.066;2022-12-18T03:30:19;-6.80;99.90
31369;DHT22;18004;48.416;10.066;2022-12-18T03:33:16;-6.80;99.90
31369;DHT22;18004;48.416;10.066;2022-12-18T03:35:45;-6.90;99.90
31369;DHT22;18004;48.416;10.066;2022-12-18T03:38:11;-6.90;99.90
31369;DHT22;18004;48.416;10.066;2022-12-18T03:40:56;-6.90;99.90
31369;DHT22;18004;48.416;10.066;2022-12-18T03:44:30;-6.90;99.90
31369;DHT22;18004;48.416;10.066;2022-12-18T03:49:47;-6.90;99.90
31369;DHT22;18004;48.416;10.066;2022-12-18T03:52:19;-6.90;99.90
31369;DHT22;18004;48.416;10.066;2022-12-18T03:54:47;-6.90;99.90
31369;DHT22;18004;48.416;10.066;2022-12-18T03:57:19;-6.90;99.90
31369;DHT22;18004;48.416;10.066;2022-12-18T03:59:47;-7.00;99.90
31369;DHT22;18004;48.416;10.066;2022-12-18T04:02:17;-7.00;99.90
31369;DHT22;18004;48.416;10.066;2022-12-18T04:04:44;-7.00;99.90
31369;DHT22;18004;48.416;10.066;2022-12-18T04:07:10;-7.10;99.90
31369;DHT22;18004;48.416;10.066;2022-12-18T04:09:38;-7.00;99.90
31369;DHT22;18004;48.416;10.066;2022-12-18T04:12:05;-7.00;99.90
31369;DHT22;18004;48.416;10.066;2022-12-18T04:14:31;-6.90;99.90
31369;DHT22;18004;48.416;10.066;2022-12-18T04:17:01;-7.00;99.90
31369;DHT22;18004;48.416;10.066;2022-12-18T04:19:28;-6.90;99.90
31369;DHT22;18004;48.416;10.066;2022-12-18T04:21:54;-6.90;99.90
31369;DHT22;18004;48.416;10.066;2022-12-18T04:24:22;-6.90;99.90
31369;DHT22;18004;48.416;10.066;2022-12-18T04:26:48;-7.00;99.90
31369;DHT22;18004;48.416;10.066;2022-12-18T04:29:14;-6.90;99.90
31369;DHT22;18004;48.416;10.066;2022-12-18T04:31:43;-7.00;99.90
31369;DHT22;18004;48.416;10.066;2022-12-18T04:34:08;-6.90;99.90
31369;DHT22;18004;48.416;10.066;2022-12-18T04:36:34;-6.90;99.90
31369;DHT22;18004;48.416;10.066;2022-12-18T04:39:00;-6.90;99.90
31369;DHT22;18004;48.416;10.066;2022-12-18T04:41:26;-6.90;99.90
31369;DHT22;18004;48.416;10.066;2022-12-18T04:43:52;-6.90;99.90
31369;DHT22;18004;48.416;10.066;2022-12-18T04:46:21;-6.90;99.90
31369;DHT22;18004;48.416;10.066;2022-12-18T04:48:47;-7.00;99.90
31369;DHT22;18004;48.416;10.066;2022-12-18T04:51:13;-6.90;99.90
31369;DHT22;18004;48.416;10.066;2022-12-18T04:53:38;-7.00;99.90
31369;DHT22;18004;48.416;10.066;2022-12-18T04:56:12;-7.00;99.90
31369;DHT22;18004;48.416;10.066;2022-12-18T04:58:39;-6.90;99.90
31369;DHT22;18004;48.416;10.066;2022-12-18T05:01:06;-7.00;99.90
31369;DHT22;18004;48.416;10.066;2022-12-18T05:03:36;-7.00;99.90
31369;DHT22;18004;48.416;10.066;2022-12-18T05:06:03;-6.90;99.90
31369;DHT22;18004;48.416;10.066;2022-12-18T05:08:28;-6.90;99.90
31369;DHT22;18004;48.416;10.066;2022-12-18T05:11:02;-6.90;99.90
31369;DHT22;18004;48.416;10.066;2022-12-18T05:13:29;-6.90;99.90
31369;DHT22;18004;48.416;10.066;2022-12-18T05:15:55;-6.90;99.90
31369;DHT22;18004;48.416;10.066;2022-12-18T05:18:24;-6.90;99.90
31369;DHT22;18004;48.416;10.066;2022-12-18T05:20:52;-6.80;99.90
31369;DHT22;18004;48.416;10.066;2022-12-18T05:23:19;-6.80;99.90
31369;DHT22;18004;48.416;10.066;2022-12-18T05:25:55;-6.80;99.90
31369;DHT22;18004;48.416;10.066;2022-12-18T05:28:23;-6.80;99.90
31369;DHT22;18004;48.416;10.066;2022-12-18T05:30:50;-6.80;99.90
31369;DHT22;18004;48.416;10.066;2022-12-18T05:33:17;-6.80;99.90
31369;DHT22;18004;48.416;10.066;2022-12-18T05:35:43;-6.80;99.90
31369;DHT22;18004;48.416;10.066;2022-12-18T05:38:10;-6.80;99.90
31369;DHT22;18004;48.416;10.066;2022-12-18T05:40:36;-6.80;99.90
31369;DHT22;18004;48.416;10.066;2022-12-18T05:43:05;-6.80;99.90
31369;DHT22;18004;48.416;10.066;2022-12-18T05:45:30;-6.80;99.90
31369;DHT22;18004;48.416;10.066;2022-12-18T05:47:56;-6.80;99.90
31369;DHT22;18004;48.416;10.066;2022-12-18T05:50:22;-6.80;99.90
31369;DHT22;18004;48.416;10.066;2022-12-18T05:52:48;-6.80;99.90
31369;DHT22;18004;48.416;10.066;2022-12-18T05:55:14;-6.80;99.90
31369;DHT22;18004;48.416;10.066;2022-12-18T05:57:39;-6.80;99.90
31369;DHT22;18004;48.416;10.066;2022-12-18T06:00:05;-6.80;99.90
31369;DHT22;18004;48.416;10.066;2022-12-18T06:02:32;-6.70;99.90
31369;DHT22;18004;48.416;10.066;2022-12-18T06:04:57;-6.80;99.90
31369;DHT22;18004;48.416;10.066;2022-12-18T06:07:26;-6.80;99.90
31369;DHT22;18004;48.416;10.066;2022-12-18T06:09:52;-6.80;99.90
31369;DHT22;18004;48.416;10.066;2022-12-18T06:12:17;-6.80;99.90
31369;DHT22;18004;48.416;10.066;2022-12-18T06:14:43;-6.80;99.90
31369;DHT22;18004;48.416;10.066;2022-12-18T06:17:09;-6.70;99.90
31369;DHT22;18004;48.416;10.066;2022-12-18T06:19:35;-6.60;99.90
31369;DHT22;18004;48.416;10.066;2022-12-18T06:22:01;-6.60;99.90
31369;DHT22;18004;48.416;10.066;2022-12-18T06:24:26;-6.60;99.90
31369;DHT22;18004;48.416;10.066;2022-12-18T06:26:52;-6.60;99.90
31369;DHT22;18004;48.416;10.066;2022-12-18T06:29:18;-6.50;99.90
31369;DHT22;18004;48.416;10.066;2022-12-18T06:31:44;-6.50;99.90
31369;DHT22;18004;48.416;10.066;2022-12-18T06:34:09;-6.50;99.90
31369;DHT22;18004;48.416;10.066;2022-12-18T06:36:35;-6.50;99.90
31369;DHT22;18004;48.416;10.066;2022-12-18T06:39:01;-6.50;99.90
31369;DHT22;18004;48.416;10.066;2022-12-18T06:41:26;-6.50;99.90
31369;DHT22;18004;48.416;10.066;2022-12-18T06:43:52;-6.50;99.90
31369;DHT22;18004;48.416;10.066;2022-12-18T06:46:18;-6.40;99.90
31369;DHT22;18004;48.416;10.066;2022-12-18T06:48:47;-6.40;99.90
31369;DHT22;18004;48.416;10.066;2022-12-18T06:51:17;-6.30;99.90
31369;DHT22;18004;48.416;10.066;2022-12-18T06:53:42;-6.30;99.90
31369;DHT22;18004;48.416;10.066;2022-12-18T06:56:09;-6.40;99.90
31369;DHT22;18004;48.416;10.066;2022-12-18T06:58:34;-6.40;99.90
31369;DHT22;18004;48.416;10.066;2022-12-18T07:01:01;-6.40;99.90
31369;DHT22;18004;48.416;10.066;2022-12-18T07:03:27;-6.40;99.90
31369;DHT22;18004;48.416;10.066;2022-12-18T07:05:53;-6.30;99.90
31369;DHT22;18004;48.416;10.066;2022-12-18T07:08:19;-6.30;99.90
31369;DHT22;18004;48.416;10.066;2022-12-18T07:10:47;-6.30;99.90
31369;DHT22;18004;48.416;10.066;2022-12-18T07:13:15;-6.20;99.90
31369;DHT22;18004;48.416;10.066;2022-12-18T07:15:44;-6.20;99.90
31369;DHT22;18004;48.416;10.066;2022-12-18T07:18:12;-6.30;99.90
31369;DHT22;18004;48.416;10.066;2022-12-18T07:20:38;-6.30;99.90
31369;DHT22;18004;48.416;10.066;2022-12-18T07:23:04;-6.20;99.90
31369;DHT22;18004;48.416;10.066;2022-12-18T07:25:36;-6.20;99.90
31369;DHT22;18004;48.416;10.066;2022-12-18T07:28:03;-6.10;99.90
31369;DHT22;18004;48.416;10.066;2022-12-18T07:30:29;-6.20;99.90
31369;DHT22;18004;48.416;10.066;2022-12-18T07:32:55;-6.10;99.90
31369;DHT22;18004;48.416;10.066;2022-12-18T07:35:21;-6.00;99.90
31369;DHT22;18004;48.416;10.066;2022-12-18T07:37:47;-6.00;99.90
31369;DHT22;18004;48.416;10.066;2022-12-18T07:40:12;-6.10;99.90
31369;DHT22;18004;48.416;10.066;2022-12-18T07:42:38;-6.10;99.90
31369;DHT22;18004;48.416;10.066;2022-12-18T07:45:04;-6.10;99.90
31369;DHT22;18004;48.416;10.066;2022-12-18T07:47:36;-6.10;99.90
31369;DHT22;18004;48.416;10.066;2022-12-18T07:50:03;-6.00;99.90
31369;DHT22;18004;48.416;10.066;2022-12-18T07:52:30;-5.90;99.90
31369;DHT22;18004;48.416;10.066;2022-12-18T07:54:55;-5.90;99.90
31369;DHT22;18004;48.416;10.066;2022-12-18T07:57:21;-5.90;99.90
31369;DHT22;18004;48.416;10.066;2022-12-18T07:59:47;-5.90;99.90
31369;DHT22;18004;48.416;10.066;2022-12-18T08:02:12;-5.90;99.90
31369;DHT22;18004;48.416;10.066;2022-12-18T08:04:38;-5.80;99.90
31369;DHT22;18004;48.416;10.066;2022-12-18T08:07:04;-5.80;99.90
31369;DHT22;18004;48.416;10.066;2022-12-18T08:09:30;-5.80;99.90
31369;DHT22;18004;48.416;10.066;2022-12-18T08:11:55;-5.80;99.90
31369;DHT22;18004;48.416;10.066;2022-12-18T08:14:21;-5.60;99.90
31369;DHT22;18004;48.416;10.066;2022-12-18T08:16:47;-5.60;99.90
31369;DHT22;18004;48.416;10.066;2022-12-18T08:19:13;-5.60;99.90
31369;DHT22;18004;48.416;10.066;2022-12-18T08:21:41;-5.60;99.90
31369;DHT22;18004;48.416;10.066;2022-12-18T08:24:09;-5.60;99.90
31369;DHT22;18004;48.416;10.066;2022-12-18T08:26:35;-5.50;99.90
31369;DHT22;18004;48.416;10.066;2022-12-18T08:29:00;-5.50;99.90
31369;DHT22;18004;48.416;10.066;2022-12-18T08:31:27;-5.40;99.90
31369;DHT22;18004;48.416;10.066;2022-12-18T08:33:54;-5.30;99.90
31369;DHT22;18004;48.416;10.066;2022-12-18T08:36:20;-5.20;99.90
31369;DHT22;18004;48.416;10.066;2022-12-18T08:38:46;-5.20;99.90
31369;DHT22;18004;48.416;10.066;2022-12-18T08:41:15;-5.10;99.90
31369;DHT22;18004;48.416;10.066;2022-12-18T08:43:41;-5.00;99.90
31369;DHT22;18004;48.416;10.066;2022-12-18T08:46:27;-5.00;99.90
31369;DHT22;18004;48.416;10.066;2022-12-18T08:48:56;-4.90;99.90
31369;DHT22;18004;48.416;10.066;2022-12-18T08:51:22;-4.90;99.90
31369;DHT22;18004;48.416;10.066;2022-12-18T08:53:48;-4.80;99.90
31369;DHT22;18004;48.416;10.066;2022-12-18T08:56:14;-4.80;99.90
31369;DHT22;18004;48.416;10.066;2022-12-18T08:58:41;-4.80;99.90
31369;DHT22;18004;48.416;10.066;2022-12-18T09:01:09;-4.80;99.90
31369;DHT22;18004;48.416;10.066;2022-12-18T09:03:35;-4.70;99.90
31369;DHT22;18004;48.416;10.066;2022-12-18T09:06:02;-4.70;99.90
31369;DHT22;18004;48.416;10.066;2022-12-18T09:08:27;-4.70;99.90
31369;DHT22;18004;48.416;10.066;2022-12-18T09:10:53;-4.60;99.90
31369;DHT22;18004;48.416;10.066;2022-12-18T09:13:20;-4.50;99.90
31369;DHT22;18004;48.416;10.066;2022-12-18T09:15:49;-4.50;99.90
31369;DHT22;18004;48.416;10.066;2022-12-18T09:18:16;-4.50;99.90
31369;DHT22;18004;48.416;10.066;2022-12-18T09:20:43;-4.50;99.90
31369;DHT22;18004;48.416;10.066;2022-12-18T09:23:09;-4.40;99.90
31369;DHT22;18004;48.416;10.066;2022-12-18T09:25:36;-4.40;99.90
31369;DHT22;18004;48.416;10.066;2022-12-18T09:28:04;-4.40;99.90
31369;DHT22;18004;48.416;10.066;2022-12-18T09:30:30;-4.40;99.90
31369;DHT22;18004;48.416;10.066;2022-12-18T09:32:59;-4.30;99.90
31369;DHT22;18004;48.416;10.066;2022-12-18T09:35:24;-4.30;99.90
31369;DHT22;18004;48.416;10.066;2022-12-18T09:37:50;-4.20;99.90
31369;DHT22;18004;48.416;10.066;2022-12-18T09:40:19;-4.20;99.90
31369;DHT22;18004;48.416;10.066;2022-12-18T09:43:09;-4.30;99.90
31369;DHT22;18004;48.416;10.066;2022-12-18T09:45:40;-4.30;99.90
31369;DHT22;18004;48.416;10.066;2022-12-18T09:48:15;-4.20;99.90
31369;DHT22;18004;48.416;10.066;2022-12-18T09:50:43;-4.10;99.90
31369;DHT22;18004;48.416;10.066;2022-12-18T09:53:17;-4.10;99.90
31369;DHT22;18004;48.416;10.066;2022-12-18T09:55:46;-4.10;99.90
31369;DHT22;18004;48.416;10.066;2022-12-18T09:58:20;-4.10;99.90
31369;DHT22;18004;48.416;10.066;2022-12-18T10:00:52;-4.00;99.90
31369;DHT22;18004;48.416;10.066;2022-12-18T10:03:21;-3.90;99.90
31369;DHT22;18004;48.416;10.066;2022-12-18T10:06:15;-3.80;99.90
31369;DHT22;18004;48.416;10.066;2022-12-18T10:25:34;-3.90;99.90
31369;DHT22;18004;48.416;10.066;2022-12-18T10:28:11;-3.80;99.90
31369;DHT22;18004;48.416;10.066;2022-12-18T10:30:39;-3.80;99.90
31369;DHT22;18004;48.416;10.066;2022-12-18T10:33:05;-3.80;99.90
31369;DHT22;18004;48.416;10.066;2022-12-18T10:35:33;-3.80;99.90
31369;DHT22;18004;48.416;10.066;2022-12-18T10:41:00;-3.80;99.90
31369;DHT22;18004;48.416;10.066;2022-12-18T10:43:37;-3.80;99.90
31369;DHT22;18004;48.416;10.066;2022-12-18T10:48:55;-3.60;99.90
31369;DHT22;18004;48.416;10.066;2022-12-18T10:51:33;-3.80;99.90
31369;DHT22;18004;48.416;10.066;2022-12-18T10:56:29;-3.60;99.90
31369;DHT22;18004;48.416;10.066;2022-12-18T10:59:01;-3.50;99.90
31369;DHT22;18004;48.416;10.066;2022-12-18T11:01:28;-3.40;99.90
31369;DHT22;18004;48.416;10.066;2022-12-18T11:06:23;-3.60;99.90
31369;DHT22;18004;48.416;10.066;2022-12-18T11:09:01;-3.60;99.90
31369;DHT22;18004;48.416;10.066;2022-12-18T11:11:27;-3.60;99.90
31369;DHT22;18004;48.416;10.066;2022-12-18T11:14:01;-3.60;99.90
31369;DHT22;18004;48.416;10.066;2022-12-18T11:16:29;-3.60;99.90
31369;DHT22;18004;48.416;10.066;2022-12-18T11:19:17;-3.40;99.90
31369;DHT22;18004;48.416;10.066;2022-12-18T11:21:45;-3.30;99.90
31369;DHT22;18004;48.416;10.066;2022-12-18T11:24:34;-3.40;99.90
31369;DHT22;18004;48.416;10.066;2022-12-18T11:27:03;-3.40;99.90
31369;DHT22;18004;48.416;10.066;2022-12-18T11:29:37;-3.40;99.90
31369;DHT22;18004;48.416;10.066;2022-12-18T11:32:35;-3.40;99.90
31369;DHT22;18004;48.416;10.066;2022-12-18T11:35:17;-3.30;99.90
31369;DHT22;18004;48.416;10.066;2022-12-18T11:37:49;-3.20;99.90
31369;DHT22;18004;48.416;10.066;2022-12-18T11:40:30;-3.10;99.90
31369;DHT22;18004;48.416;10.066;2022-12-18T11:43:10;-3.20;99.90
31369;DHT22;18004;48.416;10.066;2022-12-18T11:45:47;-3.20;99.90
31369;DHT22;18004;48.416;10.066;2022-12-18T11:48:22;-3.30;99.90
31369;DHT22;18004;48.416;10.066;2022-12-18T11:50:51;-3.40;99.90
31369;DHT22;18004;48.416;10.066;2022-12-18T11:53:18;-3.40;99.90
31369;DHT22;18004;48.416;10.066;2022-12-18T12:06:39;-3.20;99.90
31369;DHT22;18004;48.416;10.066;2022-12-18T12:09:23;-3.10;99.90
31369;DHT22;18004;48.416;10.066;2022-12-18T12:14:46;-3.00;99.90
31369;DHT22;18004;48.416;10.066;2022-12-18T12:20:16;-3.30;99.90
31369;DHT22;18004;48.416;10.066;2022-12-18T12:25:58;-3.20;99.90
31369;DHT22;18004;48.416;10.066;2022-12-18T12:39:37;-3.10;99.90
31369;DHT22;18004;48.416;10.066;2022-12-18T12:42:18;-3.10;99.90
31369;DHT22;18004;48.416;10.066;2022-12-18T12:45:05;-3.20;99.90
31369;DHT22;18004;48.416;10.066;2022-12-18T12:47:37;-3.10;99.90
31369;DHT22;18004;48.416;10.066;2022-12-18T12:50:11;-3.20;99.90
31369;DHT22;18004;48.416;10.066;2022-12-18T12:52:45;-3.30;99.90
31369;DHT22;18004;48.416;10.066;2022-12-18T12:55:18;-3.30;99.90
31369;DHT22;18004;48.416;10.066;2022-12-18T13:00:18;-3.30;99.90
31369;DHT22;18004;48.416;10.066;2022-12-18T13:03:08;-3.20;99.90
31369;DHT22;18004;48.416;10.066;2022-12-18T13:06:16;-3.20;99.90
31369;DHT22;18004;48.416;10.066;2022-12-18T13:08:59;-3.20;99.90
31369;DHT22;18004;48.416;10.066;2022-12-18T13:11:38;-3.10;99.90
31369;DHT22;18004;48.416;10.066;2022-12-18T13:14:32;-3.10;99.90
31369;DHT22;18004;48.416;10.066;2022-12-18T13:17:34;-3.10;99.90
31369;DHT22;18004;48.416;10.066;2022-12-18T13:20:08;-3.10;99.90
31369;DHT22;18004;48.416;10.066;2022-12-18T13:22:54;-3.20;99.90
31369;DHT22;18004;48.416;10.066;2022-12-18T13:25:53;-3.30;99.90
31369;DHT22;18004;48.416;10.066;2022-12-18T13:34:16;-3.40;99.90
31369;DHT22;18004;48.416;10.066;2022-12-18T13:36:42;-3.50;99.90
31369;DHT22;18004;48.416;10.066;2022-12-18T13:39:21;-3.50;99.90
31369;DHT22;18004;48.416;10.066;2022-12-18T13:44:59;-3.50;99.90
31369;DHT22;18004;48.416;10.066;2022-12-18T13:47:35;-3.50;99.90
31369;DHT22;18004;48.416;10.066;2022-12-18T13:50:18;-3.50;99.90
31369;DHT22;18004;48.416;10.066;2022-12-18T13:52:45;-3.50;99.90
31369;DHT22;18004;48.416;10.066;2022-12-18T13:55:16;-3.50;99.90
31369;DHT22;18004;48.416;10.066;2022-12-18T13:57:43;-3.50;99.90
31369;DHT22;18004;48.416;10.066;2022-12-18T14:02:47;-3.50;99.90
31369;DHT22;18004;48.416;10.066;2022-12-18T14:07:48;-3.50;99.90
31369;DHT22;18004;48.416;10.066;2022-12-18T14:10:16;-3.50;99.90
31369;DHT22;18004;48.416;10.066;2022-12-18T14:12:46;-3.50;99.90
31369;DHT22;18004;48.416;10.066;2022-12-18T14:15:41;-3.50;99.90
31369;DHT22;18004;48.416;10.066;2022-12-18T14:18:24;-3.40;99.90
31369;DHT22;18004;48.416;10.066;2022-12-18T14:20:53;-3.40;99.90
31369;DHT22;18004;48.416;10.066;2022-12-18T14:23:31;-3.50;99.90
31369;DHT22;18004;48.416;10.066;2022-12-18T14:25:57;-3.60;99.90
31369;DHT22;18004;48.416;10.066;2022-12-18T14:28:23;-3.60;99.90
31369;DHT22;18004;48.416;10.066;2022-12-18T14:30:51;-3.60;99.90
31369;DHT22;18004;48.416;10.066;2022-12-18T14:33:20;-3.50;99.90
31369;DHT22;18004;48.416;10.066;2022-12-18T14:36:15;-3.50;99.90
31369;DHT22;18004;48.416;10.066;2022-12-18T14:38:42;-3.50;99.90
31369;DHT22;18004;48.416;10.066;2022-12-18T14:41:16;-3.60;99.90
31369;DHT22;18004;48.416;10.066;2022-12-18T14:43:44;-3.60;99.90
31369;DHT22;18004;48.416;10.066;2022-12-18T14:48:54;-3.70;99.90
31369;DHT22;18004;48.416;10.066;2022-12-18T14:51:22;-3.70;99.90
31369;DHT22;18004;48.416;10.066;2022-12-18T14:54:02;-3.60;99.90
31369;DHT22;18004;48.416;10.066;2022-12-18T14:56:34;-3.60;99.90
31369;DHT22;18004;48.416;10.066;2022-12-18T15:03:55;-3.70;99.90
31369;DHT22;18004;48.416;10.066;2022-12-18T15:08:56;-3.80;99.90
31369;DHT22;18004;48.416;10.066;2022-12-18T15:11:32;-3.80;99.90
31369;DHT22;18004;48.416;10.066;2022-12-18T15:13:58;-3.90;99.90
31369;DHT22;18004;48.416;10.066;2022-12-18T15:16:28;-3.90;99.90
31369;DHT22;18004;48.416;10.066;2022-12-18T15:18:54;-3.90;99.90
31369;DHT22;18004;48.416;10.066;2022-12-18T15:21:20;-3.90;99.90
31369;DHT22;18004;48.416;10.066;2022-12-18T15:23:53;-3.90;99.90
31369;DHT22;18004;48.416;10.066;2022-12-18T15:26:20;-3.90;99.90
31369;DHT22;18004;48.416;10.066;2022-12-18T15:36:29;-3.90;99.90
31369;DHT22;18004;48.416;10.066;2022-12-18T15:38:56;-3.90;99.90
31369;DHT22;18004;48.416;10.066;2022-12-18T15:41:23;-3.90;99.90
31369;DHT22;18004;48.416;10.066;2022-12-18T15:43:51;-4.00;99.90
31369;DHT22;18004;48.416;10.066;2022-12-18T15:46:20;-4.00;99.90
31369;DHT22;18004;48.416;10.066;2022-12-18T15:48:48;-4.00;99.90
31369;DHT22;18004;48.416;10.066;2022-12-18T15:51:19;-4.00;99.90
31369;DHT22;18004;48.416;10.066;2022-12-18T15:53:46;-4.00;99.90
31369;DHT22;18004;48.416;10.066;2022-12-18T15:56:13;-4.10;99.90
31369;DHT22;18004;48.416;10.066;2022-12-18T15:58:58;-4.10;99.90
31369;DHT22;18004;48.416;10.066;2022-12-18T16:01:26;-4.00;99.90
31369;DHT22;18004;48.416;10.066;2022-12-18T16:03:52;-4.00;99.90
31369;DHT22;18004;48.416;10.066;2022-12-18T16:06:20;-4.00;99.90
31369;DHT22;18004;48.416;10.066;2022-12-18T16:08:46;-4.00;99.90
31369;DHT22;18004;48.416;10.066;2022-12-18T16:11:29;-4.00;99.90
31369;DHT22;18004;48.416;10.066;2022-12-18T16:16:33;-4.10;99.90
31369;DHT22;18004;48.416;10.066;2022-12-18T16:18:58;-4.10;99.90
31369;DHT22;18004;48.416;10.066;2022-12-18T16:21:24;-4.20;99.90
31369;DHT22;18004;48.416;10.066;2022-12-18T16:23:50;-4.20;99.90
31369;DHT22;18004;48.416;10.066;2022-12-18T16:26:16;-4.20;99.90
31369;DHT22;18004;48.416;10.066;2022-12-18T16:28:42;-4.30;99.90
31369;DHT22;18004;48.416;10.066;2022-12-18T16:31:08;-4.30;99.90
31369;DHT22;18004;48.416;10.066;2022-12-18T16:33:33;-4.20;99.90
31369;DHT22;18004;48.416;10.066;2022-12-18T16:35:59;-4.20;99.90
31369;DHT22;18004;48.416;10.066;2022-12-18T16:38:25;-4.20;99.90
31369;DHT22;18004;48.416;10.066;2022-12-18T16:40:51;-4.20;99.90
31369;DHT22;18004;48.416;10.066;2022-12-18T16:43:35;-4.20;99.90
31369;DHT22;18004;48.416;10.066;2022-12-18T16:46:01;-4.30;99.90
31369;DHT22;18004;48.416;10.066;2022-12-18T16:48:26;-4.30;99.90
31369;DHT22;18004;48.416;10.066;2022-12-18T16:51:02;-4.40;99.90
31369;DHT22;18004;48.416;10.066;2022-12-18T16:53:29;-4.40;99.90
31369;DHT22;18004;48.416;10.066;2022-12-18T16:55:55;-4.40;99.90
31369;DHT22;18004;48.416;10.066;2022-12-18T16:58:21;-4.40;99.90
31369;DHT22;18004;48.416;10.066;2022-12-18T17:00:48;-4.40;99.90
31369;DHT22;18004;48.416;10.066;2022-12-18T17:03:14;-4.40;99.90
31369;DHT22;18004;48.416;10.066;2022-12-18T17:05:40;-4.40;99.90
31369;DHT22;18004;48.416;10.066;2022-12-18T17:08:05;-4.40;99.90
31369;DHT22;18004;48.416;10.066;2022-12-18T17:10:34;-4.40;99.90
31369;DHT22;18004;48.416;10.066;2022-12-18T17:13:00;-4.40;99.90
31369;DHT22;18004;48.416;10.066;2022-12-18T17:15:25;-4.40;99.90
31369;DHT22;18004;48.416;10.066;2022-12-18T17:17:51;-4.40;99.90
31369;DHT22;18004;48.416;10.066;2022-12-18T17:20:17;-4.40;99.90
31369;DHT22;18004;48.416;10.066;2022-12-18T17:22:43;-4.40;99.90
31369;DHT22;18004;48.416;10.066;2022-12-18T17:25:08;-4.30;99.90
31369;DHT22;18004;48.416;10.066;2022-12-18T17:27:34;-4.30;99.90
31369;DHT22;18004;48.416;10.066;2022-12-18T17:30:00;-4.40;99.90
31369;DHT22;18004;48.416;10.066;2022-12-18T17:32:26;-4.40;99.90
31369;DHT22;18004;48.416;10.066;2022-12-18T17:34:52;-4.40;99.90